Time;durP1;ratioP1;P1;durP2;ratioP2;P2;SDS_P1;SDS_P2;PMS_P1;PMS_P2;Temp;Humidity;BMP_temperature;BMP_pressure;BME280_temperature;BME280_humidity;BME280_pressure;Samples;Min_cycle;Max_cycle;Signal;HPM_P1;HPM_P2
2023/10/31 00:00:06;;;;;;;17.13;11.30;;;12.50;99.90;;;;;;10265329;28;20677;-85
2023/10/31 00:05:08;;;;;;;26.67;13.83;;;12.50;99.90;;;;;;10245899;28;20294;-86
2023/10/31 00:10:11;;;;;;;16.53;9.70;;;12.30;99.90;;;;;;10263447;28;20686;-85
2023/10/31 00:15:14;;;;;;;17.67;11.60;;;12.40;99.90;;;;;;10262287;28;20312;-85
2023/10/31 00:20:16;;;;;;;18.53;12.10;;;12.40;99.90;;;;;;10263775;28;20284;-85
2023/10/31 00:25:19;;;;;;;12.97;9.40;;;12.50;99.90;;;;;;10259755;28;20371;-85
2023/10/31 00:30:22;;;;;;;12.53;9.57;;;12.70;99.90;;;;;;10260980;28;20332;-85
2023/10/31 00:35:24;;;;;;;15.27;9.73;;;12.90;99.90;;;;;;10262630;28;20850;-85
2023/10/31 00:40:27;;;;;;;21.50;13.13;;;13.00;99.90;;;;;;10260798;28;20572;-85
2023/10/31 00:45:29;;;;;;;13.33;10.50;;;13.00;99.90;;;;;;10261917;28;20288;-85
2023/10/31 00:50:32;;;;;;;13.33;9.53;;;13.10;99.90;;;;;;10261572;28;20267;-85
2023/10/31 00:55:35;;;;;;;13.27;9.87;;;13.20;99.90;;;;;;10261396;28;20367;-85
2023/10/31 01:00:38;;;;;;;22.30;11.97;;;13.30;99.90;;;;;;10260739;28;20759;-85
2023/10/31 01:05:40;;;;;;;18.97;12.57;;;13.30;99.90;;;;;;10263116;28;20508;-85
2023/10/31 01:10:43;;;;;;;13.33;7.97;;;13.30;99.90;;;;;;10245776;28;20332;-85
2023/10/31 01:15:45;;;;;;;10.40;7.47;;;13.30;99.90;;;;;;10243145;28;20317;-85
2023/10/31 01:20:48;;;;;;;10.30;8.20;;;13.40;99.90;;;;;;10260353;28;20378;-85
2023/10/31 01:25:50;;;;;;;18.97;9.47;;;13.40;99.90;;;;;;10246052;28;20643;-85
2023/10/31 01:30:53;;;;;;;13.73;8.97;;;13.50;99.90;;;;;;10244060;28;20293;-85
2023/10/31 01:35:56;;;;;;;14.83;9.90;;;13.40;99.90;;;;;;10259532;28;20311;-86
2023/10/31 01:40:58;;;;;;;10.07;7.30;;;13.30;99.90;;;;;;10259441;28;20306;-85
2023/10/31 01:46:01;;;;;;;7.33;6.57;;;13.30;99.90;;;;;;10260544;28;20329;-85
2023/10/31 01:51:04;;;;;;;8.93;5.47;;;13.30;99.90;;;;;;10261812;28;20743;-85
2023/10/31 01:56:07;;;;;;;11.33;6.37;;;13.70;99.90;;;;;;10257928;28;20313;-84
2023/10/31 02:01:10;;;;;;;7.50;6.37;;;13.70;99.90;;;;;;10256258;28;20329;-85
2023/10/31 02:06:13;;;;;;;10.20;7.63;;;13.70;99.90;;;;;;10267638;28;20691;-85
2023/10/31 02:11:15;;;;;;;6.00;4.90;;;13.60;99.90;;;;;;10279566;28;20633;-85
2023/10/31 02:16:18;;;;;;;12.80;9.10;;;13.60;99.90;;;;;;10262471;28;20257;-85
2023/10/31 02:21:21;;;;;;;9.90;7.43;;;13.60;99.90;;;;;;10278980;28;20245;-85
2023/10/31 02:26:23;;;;;;;14.20;7.50;;;13.60;99.90;;;;;;10261378;28;20650;-85
2023/10/31 02:31:26;;;;;;;7.37;5.43;;;13.70;99.90;;;;;;10288445;28;20684;-85
2023/10/31 02:36:29;;;;;;;12.47;7.37;;;13.90;99.90;;;;;;10295257;28;20674;-85
2023/10/31 02:41:32;;;;;;;6.83;5.60;;;13.80;99.90;;;;;;10295212;28;20594;-85
2023/10/31 02:46:38;;;;;;;8.67;5.73;;;13.80;99.90;;;;;;10295047;28;20244;-86
2023/10/31 02:51:40;;;;;;;5.67;4.77;;;13.80;99.90;;;;;;10293957;28;20213;-85
2023/10/31 02:56:43;;;;;;;9.73;6.43;;;13.80;99.90;;;;;;10277296;28;20261;-86
2023/10/31 03:01:46;;;;;;;11.23;7.20;;;14.10;99.90;;;;;;10276513;28;20217;-85
2023/10/31 03:06:48;;;;;;;12.00;6.03;;;14.00;99.90;;;;;;10295444;28;20209;-85
2023/10/31 03:11:51;;;;;;;6.93;5.27;;;14.00;99.90;;;;;;10278234;28;20582;-86
2023/10/31 03:16:53;;;;;;;5.77;5.10;;;14.10;99.90;;;;;;10278348;28;20226;-85
2023/10/31 03:21:56;;;;;;;10.90;5.73;;;14.20;99.90;;;;;;10296194;28;20628;-85
2023/10/31 03:26:58;;;;;;;10.13;7.17;;;14.20;99.90;;;;;;10303640;28;20265;-86
2023/10/31 03:32:01;;;;;;;7.77;5.93;;;14.20;99.90;;;;;;10345159;28;20216;-86
2023/10/31 03:37:04;;;;;;;9.47;6.50;;;14.30;99.90;;;;;;10345370;28;20205;-86
2023/10/31 03:42:07;;;;;;;5.70;4.57;;;14.30;99.90;;;;;;10328224;28;20193;-86
2023/10/31 03:47:09;;;;;;;11.07;7.73;;;14.30;99.90;;;;;;10344021;28;20197;-86
2023/10/31 03:52:12;;;;;;;16.10;7.93;;;14.30;99.90;;;;;;10327960;28;20202;-86
2023/10/31 03:57:14;;;;;;;9.90;5.50;;;14.20;99.90;;;;;;10344650;28;20201;-86
2023/10/31 04:02:17;;;;;;;9.90;5.80;;;14.00;99.90;;;;;;10344101;28;20186;-86
2023/10/31 04:07:19;;;;;;;16.13;6.17;;;14.10;99.90;;;;;;10327089;28;20211;-86
2023/10/31 04:12:22;;;;;;;7.30;6.17;;;14.30;99.90;;;;;;10326745;28;20205;-86
2023/10/31 04:17:25;;;;;;;8.77;5.37;;;14.10;99.90;;;;;;10327001;28;20217;-86
2023/10/31 04:22:27;;;;;;;10.63;5.97;;;14.30;99.90;;;;;;10343587;28;20209;-85
2023/10/31 04:27:30;;;;;;;6.97;5.80;;;14.20;99.90;;;;;;10343321;28;20230;-86
2023/10/31 04:32:32;;;;;;;14.17;6.40;;;14.20;99.90;;;;;;10342691;28;20186;-86
2023/10/31 04:37:35;;;;;;;7.60;5.37;;;14.10;99.90;;;;;;10342509;28;20432;-86
2023/10/31 04:42:43;;;;;;;14.23;7.00;;;13.90;99.90;;;;;;10325547;28;20197;-85
2023/10/31 04:47:45;;;;;;;9.80;6.57;;;13.80;99.90;;;;;;10342587;28;20187;-85
2023/10/31 04:52:48;;;;;;;14.50;9.87;;;13.50;99.90;;;;;;10341188;28;20202;-85
2023/10/31 04:57:51;;;;;;;16.07;9.87;;;13.50;99.90;;;;;;10342539;28;20215;-86
2023/10/31 05:02:53;;;;;;;18.03;12.43;;;13.50;99.90;;;;;;10341582;28;20215;-85
2023/10/31 05:07:56;;;;;;;15.43;9.97;;;13.40;99.90;;;;;;10341660;28;20209;-86
2023/10/31 05:13:02;;;;;;;26.57;13.93;;;13.50;99.90;;;;;;10340993;28;20205;-86
2023/10/31 05:18:04;;;;;;;20.27;12.37;;;13.30;99.90;;;;;;10340995;28;20208;-84
2023/10/31 05:23:07;;;;;;;25.47;13.73;;;13.30;99.90;;;;;;10323889;28;20409;-84
2023/10/31 05:28:10;;;;;;;24.43;13.03;;;13.30;99.90;;;;;;10324535;28;20209;-85
2023/10/31 05:33:15;;;;;;;32.33;15.80;;;13.40;99.90;;;;;;10337531;28;20202;-84
2023/10/31 05:38:18;;;;;;;46.70;19.10;;;13.30;99.90;;;;;;10339922;28;20209;-84
2023/10/31 05:43:20;;;;;;;35.43;16.93;;;13.40;99.90;;;;;;10340439;28;20202;-83
2023/10/31 05:48:23;;;;;;;33.63;17.47;;;13.40;99.90;;;;;;10334040;28;20205;-84
2023/10/31 05:53:25;;;;;;;20.23;11.67;;;13.50;99.90;;;;;;10286993;28;20221;-83
2023/10/31 05:58:28;;;;;;;24.57;12.33;;;13.60;99.90;;;;;;10281045;28;20685;-84
2023/10/31 06:03:32;;;;;;;23.30;12.67;;;13.70;99.90;;;;;;10266516;28;20219;-83
2023/10/31 06:08:35;;;;;;;20.83;12.17;;;13.30;99.90;;;;;;10290798;28;20217;-83
2023/10/31 06:13:38;;;;;;;20.33;11.60;;;13.20;99.90;;;;;;10310737;28;20221;-83
2023/10/31 06:18:40;;;;;;;19.17;10.27;;;13.20;99.90;;;;;;10314108;28;20264;-84
2023/10/31 06:23:45;;;;;;;16.83;10.50;;;13.10;99.90;;;;;;10349177;28;20227;-84
2023/10/31 06:28:48;;;;;;;21.93;12.07;;;13.10;99.90;;;;;;10325128;28;20701;-84
2023/10/31 06:34:11;;;;;;;26.93;15.93;;;13.20;99.90;;;;;;10284252;28;20776;-85
2023/10/31 06:39:19;;;;;;;33.50;20.10;;;13.30;99.90;;;;;;10299812;28;20739;-84
2023/10/31 06:44:22;;;;;;;29.60;18.80;;;13.30;99.90;;;;;;10304373;28;20209;-83
2023/10/31 06:49:24;;;;;;;27.03;12.83;;;13.30;99.90;;;;;;10280785;28;20209;-83
2023/10/31 06:54:27;;;;;;;23.97;14.83;;;13.30;99.90;;;;;;10307125;28;20280;-83
2023/10/31 06:59:29;;;;;;;16.67;11.97;;;13.40;99.90;;;;;;10281119;28;20197;-83
2023/10/31 07:04:32;;;;;;;17.47;12.00;;;13.40;99.90;;;;;;10299425;28;20211;-84
2023/10/31 07:09:34;;;;;;;33.73;19.27;;;13.50;99.90;;;;;;10303257;28;20205;-82
2023/10/31 07:14:37;;;;;;;25.93;11.77;;;13.50;99.90;;;;;;10299418;28;20249;-81
2023/10/31 07:19:39;;;;;;;20.20;12.27;;;13.60;99.90;;;;;;10302284;28;20266;-82
2023/10/31 07:24:42;;;;;;;19.33;9.40;;;13.80;99.90;;;;;;10304952;28;20225;-84
2023/10/31 07:29:46;;;;;;;18.97;11.20;;;14.00;99.90;;;;;;10307866;28;20275;-84
2023/10/31 07:34:48;;;;;;;18.40;10.57;;;14.20;99.90;;;;;;10295655;28;20229;-84
2023/10/31 07:39:51;;;;;;;13.87;9.53;;;14.50;99.90;;;;;;10312489;28;20263;-84
2023/10/31 07:44:54;;;;;;;14.33;9.23;;;14.60;99.90;;;;;;10306187;28;20205;-84
2023/10/31 07:49:56;;;;;;;10.90;7.13;;;14.70;99.90;;;;;;10278707;28;20236;-83
2023/10/31 07:54:59;;;;;;;15.03;7.67;;;15.00;99.90;;;;;;10269272;29;20273;-85
2023/10/31 08:00:02;;;;;;;14.73;7.93;;;15.30;99.90;;;;;;10278654;28;20206;-84
2023/10/31 08:05:14;;;;;;;15.67;8.97;;;15.60;99.90;;;;;;10318508;28;20214;-84
2023/10/31 08:10:17;;;;;;;11.77;7.00;;;15.70;99.90;;;;;;10290805;28;20202;-83
2023/10/31 08:15:19;;;;;;;6.77;5.67;;;15.70;99.90;;;;;;10309237;28;20229;-84
2023/10/31 08:20:22;;;;;;;15.17;7.80;;;15.80;99.90;;;;;;10325247;28;20202;-83
2023/10/31 08:25:25;;;;;;;13.03;7.40;;;15.90;99.90;;;;;;10255064;28;20321;-84
2023/10/31 08:30:27;;;;;;;13.10;6.90;;;15.90;99.90;;;;;;10253889;29;20202;-84
2023/10/31 08:35:30;;;;;;;12.20;8.07;;;16.10;99.90;;;;;;10252119;28;20287;-84
2023/10/31 08:40:32;;;;;;;12.70;7.63;;;16.20;99.90;;;;;;10264527;28;20263;-84
2023/10/31 08:45:35;;;;;;;11.87;7.70;;;16.10;99.90;;;;;;10276875;28;20197;-85
2023/10/31 08:50:38;;;;;;;12.37;8.67;;;16.40;99.90;;;;;;10292241;28;20618;-84
2023/10/31 08:55:43;;;;;;;14.87;8.43;;;16.40;99.90;;;;;;10291322;28;20264;-84
2023/10/31 09:00:46;;;;;;;9.63;4.00;;;16.50;99.90;;;;;;10274034;28;20209;-85
2023/10/31 09:05:49;;;;;;;11.57;6.90;;;16.50;99.90;;;;;;10283913;28;20354;-85
2023/10/31 09:10:51;;;;;;;8.13;6.37;;;16.80;99.90;;;;;;10284344;28;20287;-84
2023/10/31 09:15:54;;;;;;;9.67;5.97;;;16.60;99.90;;;;;;10291864;28;20256;-84
2023/10/31 09:20:57;;;;;;;10.63;5.53;;;16.60;99.90;;;;;;10292462;28;20239;-83
2023/10/31 09:26:00;;;;;;;8.20;5.80;;;16.40;99.90;;;;;;10252945;28;20238;-83
2023/10/31 09:31:02;;;;;;;3.03;2.57;;;16.40;99.90;;;;;;10272660;28;20237;-85
2023/10/31 09:36:05;;;;;;;3.57;2.70;;;16.70;99.90;;;;;;10290886;28;20217;-84
2023/10/31 09:41:08;;;;;;;2.50;1.90;;;16.60;99.90;;;;;;10290311;28;20203;-85
2023/10/31 09:46:11;;;;;;;3.33;2.27;;;16.40;99.90;;;;;;10291356;28;20228;-85
2023/10/31 09:51:14;;;;;;;3.10;2.33;;;16.40;99.90;;;;;;10291498;28;20202;-85
2023/10/31 09:56:17;;;;;;;4.70;2.43;;;16.40;99.90;;;;;;10273411;28;20300;-85
2023/10/31 10:01:20;;;;;;;2.30;2.10;;;16.30;99.90;;;;;;10290768;28;20198;-85
2023/10/31 10:06:23;;;;;;;2.00;1.87;;;16.20;99.90;;;;;;10290636;28;20206;-85
2023/10/31 10:11:27;;;;;;;5.03;1.73;;;16.10;99.90;;;;;;10275998;28;20265;-87
2023/10/31 10:16:31;;;;;;;2.87;1.87;;;16.40;99.90;;;;;;10288017;28;20596;-87
2023/10/31 10:21:47;;;;;;;3.43;2.03;;;16.50;99.90;;;;;;10290568;28;20241;-87
2023/10/31 10:26:51;;;;;;;2.50;2.10;;;16.80;99.90;;;;;;10274318;28;20226;-87
2023/10/31 10:31:54;;;;;;;3.30;3.00;;;16.90;99.90;;;;;;10290770;28;20210;-87
2023/10/31 10:36:58;;;;;;;3.60;2.63;;;15.90;99.90;;;;;;10290352;28;20226;-86
2023/10/31 10:42:01;;;;;;;4.73;3.03;;;15.10;99.90;;;;;;10290621;28;20253;-86
2023/10/31 10:47:06;;;;;;;3.13;2.90;;;14.50;99.90;;;;;;10272328;28;20560;-86
2023/10/31 10:52:33;;;;;;;5.57;3.97;;;14.30;99.90;;;;;;10293083;28;20213;-85
2023/10/31 10:57:59;;;;;;;4.03;2.93;;;14.20;99.90;;;;;;10282398;28;20280;-86
2023/10/31 11:03:04;;;;;;;2.90;2.70;;;14.10;99.90;;;;;;10292372;28;20229;-86
2023/10/31 11:08:07;;;;;;;3.17;2.50;;;14.00;99.90;;;;;;10246149;28;20279;-86
2023/10/31 11:13:11;;;;;;;3.80;3.50;;;14.00;99.90;;;;;;10278423;28;20237;-86
2023/10/31 11:18:14;;;;;;;3.23;2.93;;;13.90;99.90;;;;;;10289932;28;20265;-86
2023/10/31 11:23:17;;;;;;;2.23;1.93;;;14.80;99.90;;;;;;10288566;28;20241;-86
2023/10/31 11:28:20;;;;;;;3.15;2.55;;;15.50;99.90;;;;;;10287892;28;20277;-86
2023/10/31 11:33:24;;;;;;;2.37;1.80;;;16.10;99.90;;;;;;10271837;28;20300;-86
2023/10/31 11:38:36;;;;;;;3.20;1.73;;;16.30;99.90;;;;;;10260172;28;20257;-86
2023/10/31 11:43:38;;;;;;;2.05;1.70;;;17.10;99.90;;;;;;10289783;28;20303;-86
2023/10/31 11:48:51;;;;;;;1.90;1.60;;;17.40;99.90;;;;;;10289298;28;20307;-86
2023/10/31 11:53:56;;;;;;;1.27;1.17;;;18.10;99.90;;;;;;10289283;28;20261;-86
2023/10/31 11:59:02;;;;;;;1.67;1.35;;;18.50;99.90;;;;;;10288668;28;20324;-85
2023/10/31 12:04:05;;;;;;;1.52;1.08;;;18.60;99.90;;;;;;10288616;28;20292;-85
2023/10/31 12:09:10;;;;;;;1.25;1.15;;;18.20;99.90;;;;;;10289020;28;20291;-85
2023/10/31 12:14:18;;;;;;;2.10;1.25;;;18.20;99.90;;;;;;10287655;28;20233;-86
2023/10/31 12:19:21;;;;;;;0.95;0.73;;;17.80;99.90;;;;;;10287474;28;20233;-86
2023/10/31 12:24:24;;;;;;;1.23;1.08;;;17.60;99.90;;;;;;10271539;28;20237;-86
2023/10/31 12:29:27;;;;;;;1.40;0.93;;;17.50;99.90;;;;;;10310530;28;20295;-86
2023/10/31 12:34:30;;;;;;;1.48;0.93;;;17.80;99.90;;;;;;10298796;28;20288;-86
2023/10/31 12:39:32;;;;;;;0.80;0.68;;;17.70;99.90;;;;;;10287194;28;20229;-86
2023/10/31 12:44:35;;;;;;;1.25;1.10;;;18.00;99.90;;;;;;10287274;28;20241;-86
2023/10/31 12:49:38;;;;;;;2.50;1.77;;;18.20;99.90;;;;;;10295328;28;20264;-86
2023/10/31 12:54:40;;;;;;;2.42;1.00;;;17.80;99.90;;;;;;10292559;28;20272;-86
2023/10/31 12:59:43;;;;;;;1.13;1.02;;;17.80;99.90;;;;;;10284242;28;20288;-86
2023/10/31 13:04:46;;;;;;;1.20;1.10;;;17.80;99.90;;;;;;10268199;28;20245;-86
2023/10/31 13:09:48;;;;;;;1.40;1.20;;;17.90;99.90;;;;;;10288970;28;20237;-86
2023/10/31 13:14:51;;;;;;;1.52;1.42;;;17.60;99.90;;;;;;10308154;28;20253;-86
2023/10/31 13:19:53;;;;;;;1.45;1.35;;;17.30;99.90;;;;;;10325664;28;20233;-86
2023/10/31 13:24:56;;;;;;;1.83;1.50;;;17.20;99.90;;;;;;10291754;28;20246;-86
2023/10/31 13:29:59;;;;;;;7.47;2.47;;;17.30;99.90;;;;;;10228515;29;20304;-86
2023/10/31 13:35:02;;;;;;;2.13;1.40;;;17.30;99.90;;;;;;10251615;28;20265;-86
2023/10/31 13:40:08;;;;;;;1.77;1.63;;;17.60;99.90;;;;;;10285494;28;20237;-86
2023/10/31 13:45:11;;;;;;;1.58;1.23;;;17.50;99.90;;;;;;10284636;28;20260;-86
2023/10/31 13:50:13;;;;;;;2.45;1.05;;;17.60;99.90;;;;;;10264555;28;20691;-86
2023/10/31 13:55:16;;;;;;;1.67;1.33;;;17.60;99.90;;;;;;10268134;28;20758;-86
2023/10/31 14:00:19;;;;;;;1.23;1.00;;;17.70;99.90;;;;;;10265805;28;20233;-86
2023/10/31 14:05:21;;;;;;;1.67;1.40;;;17.50;99.90;;;;;;10263801;28;20240;-86
2023/10/31 14:10:25;;;;;;;2.95;1.17;;;17.40;99.90;;;;;;10283035;28;20769;-85
2023/10/31 14:15:28;;;;;;;1.95;1.10;;;17.10;99.90;;;;;;10266149;28;20281;-86
2023/10/31 14:20:30;;;;;;;2.13;1.53;;;17.30;99.90;;;;;;10250672;28;20692;-85
2023/10/31 14:25:33;;;;;;;2.95;2.17;;;16.80;99.90;;;;;;10289375;28;20276;-86
2023/10/31 14:30:35;;;;;;;3.22;1.55;;;17.10;99.90;;;;;;10274237;28;20249;-86
2023/10/31 14:35:38;;;;;;;2.78;1.40;;;17.30;99.90;;;;;;10274847;28;20327;-86
2023/10/31 14:40:41;;;;;;;3.65;1.30;;;;;;;;;;10291461;28;20225;-86
2023/10/31 14:45:44;;;;;;;1.20;1.08;;;17.10;99.90;;;;;;10291459;28;20742;-86
2023/10/31 14:50:48;;;;;;;4.43;1.83;;;17.10;99.90;;;;;;10273449;28;20699;-86
2023/10/31 14:55:51;;;;;;;2.42;1.35;;;17.10;99.90;;;;;;10298191;28;20260;-86
2023/10/31 15:00:54;;;;;;;1.20;1.10;;;16.80;99.90;;;;;;10284592;28;20238;-86
2023/10/31 15:05:56;;;;;;;1.27;0.87;;;16.90;99.90;;;;;;10279748;28;20679;-86
2023/10/31 15:10:59;;;;;;;3.83;1.40;;;17.00;99.90;;;;;;10273560;28;20627;-86
2023/10/31 15:16:02;;;;;;;4.00;2.37;;;16.20;99.90;;;;;;10288992;28;20284;-88
2023/10/31 15:21:05;;;;;;;1.63;1.23;;;15.00;99.90;;;;;;10290119;28;20237;-85
2023/10/31 15:26:12;;;;;;;3.33;1.97;;;15.40;99.90;;;;;;10289840;28;20284;-85
2023/10/31 15:31:16;;;;;;;2.47;2.00;;;15.90;99.90;;;;;;10270745;28;20300;-85
2023/10/31 15:36:18;;;;;;;2.17;1.63;;;14.80;99.90;;;;;;10288085;28;20259;-87
2023/10/31 15:41:21;;;;;;;2.27;1.70;;;13.80;99.90;;;;;;10270904;28;20675;-87
2023/10/31 15:46:24;;;;;;;5.57;2.10;;;13.50;99.90;;;;;;10272249;28;20245;-87
2023/10/31 15:51:27;;;;;;;2.90;2.20;;;13.20;99.90;;;;;;10280584;28;20682;-88
2023/10/31 15:56:29;;;;;;;3.93;2.63;;;12.90;99.90;;;;;;10289564;28;20249;-87
2023/10/31 16:01:32;;;;;;;3.83;1.80;;;12.70;99.90;;;;;;10271867;28;20281;-86
2023/10/31 16:06:38;;;;;;;2.03;1.33;;;12.90;99.90;;;;;;10287692;28;20245;-85
2023/10/31 16:11:40;;;;;;;4.97;3.13;;;13.10;99.90;;;;;;10286691;28;20238;-85
2023/10/31 16:16:43;;;;;;;3.70;2.50;;;13.10;99.90;;;;;;10251468;28;20305;-85
2023/10/31 16:21:45;;;;;;;5.10;3.63;;;13.20;99.90;;;;;;10287269;28;20291;-85
2023/10/31 16:26:48;;;;;;;4.87;2.87;;;13.40;99.90;;;;;;10262417;28;20324;-84
2023/10/31 16:31:51;;;;;;;5.47;2.80;;;13.20;99.90;;;;;;10286329;28;20601;-85
2023/10/31 16:36:54;;;;;;;3.70;3.00;;;13.30;99.90;;;;;;10270351;28;20285;-85
2023/10/31 16:41:57;;;;;;;6.63;3.43;;;13.60;99.90;;;;;;10287009;28;20303;-85
2023/10/31 16:47:00;;;;;;;8.07;3.93;;;14.00;99.90;;;;;;10252586;28;20256;-85
2023/10/31 16:52:03;;;;;;;6.17;4.23;;;14.20;99.90;;;;;;10283809;28;20687;-85
2023/10/31 16:57:07;;;;;;;5.77;3.77;;;14.40;99.90;;;;;;9924541;28;10000313;-85
2023/10/31 17:02:09;;;;;;;5.60;3.23;;;14.60;99.90;;;;;;10264184;28;20245;-85
2023/10/31 17:07:12;;;;;;;4.67;2.67;;;14.80;99.90;;;;;;10266373;28;20232;-85
2023/10/31 17:12:14;;;;;;;8.07;3.87;;;15.40;99.90;;;;;;10281796;28;20222;-85
2023/10/31 17:17:17;;;;;;;6.93;2.53;;;16.20;99.90;;;;;;10266229;28;20713;-86
2023/10/31 17:22:20;;;;;;;9.70;2.78;;;16.40;99.90;;;;;;10263371;28;20252;-86
2023/10/31 17:27:22;;;;;;;7.83;2.10;;;16.70;99.90;;;;;;10262211;28;20347;-87
2023/10/31 17:32:25;;;;;;;4.63;3.07;;;17.10;99.90;;;;;;10282572;28;20233;-86
2023/10/31 17:37:27;;;;;;;4.23;2.70;;;17.30;99.90;;;;;;10281760;28;20323;-86
2023/10/31 17:42:33;;;;;;;9.00;2.93;;;17.30;99.90;;;;;;10272313;28;20826;-86
2023/10/31 17:47:35;;;;;;;2.63;1.90;;;16.90;99.90;;;;;;10276792;28;20229;-86
2023/10/31 17:52:38;;;;;;;4.17;2.43;;;16.80;99.90;;;;;;10280503;28;20645;-87
2023/10/31 17:57:40;;;;;;;2.27;1.40;;;16.90;99.90;;;;;;10275175;28;20316;-86
2023/10/31 18:02:43;;;;;;;4.37;2.40;;;17.10;99.90;;;;;;10249236;28;20264;-86
2023/10/31 18:07:46;;;;;;;4.97;1.90;;;17.20;99.90;;;;;;10289281;28;20655;-86
2023/10/31 18:12:49;;;;;;;2.77;1.80;;;16.90;99.90;;;;;;10288976;28;20270;-86
2023/10/31 18:17:52;;;;;;;4.90;2.20;;;17.20;99.90;;;;;;10288208;28;20268;-86
2023/10/31 18:22:55;;;;;;;3.77;1.93;;;17.10;99.90;;;;;;10275311;28;20298;-86
2023/10/31 18:27:58;;;;;;;2.03;1.57;;;17.20;99.90;;;;;;10273017;28;20728;-87
2023/10/31 18:33:02;;;;;;;2.50;1.83;;;17.10;99.90;;;;;;10284691;28;20237;-87
2023/10/31 18:38:06;;;;;;;4.97;2.37;;;17.00;99.90;;;;;;10292003;28;20327;-86
2023/10/31 18:43:09;;;;;;;3.03;2.10;;;17.20;99.90;;;;;;10291599;28;20704;-86
2023/10/31 18:48:12;;;;;;;2.87;2.10;;;16.90;99.90;;;;;;10288937;28;20291;-87
2023/10/31 18:53:15;;;;;;;3.87;2.83;;;16.70;99.90;;;;;;10290858;28;20240;-86
2023/10/31 18:58:17;;;;;;;2.03;1.83;;;16.20;99.90;;;;;;10282181;28;20334;-86
2023/10/31 19:03:20;;;;;;;4.80;3.20;;;15.80;99.90;;;;;;10274706;28;20241;-86
2023/10/31 19:08:26;;;;;;;8.33;3.43;;;16.00;99.90;;;;;;10257833;28;20233;-86
2023/10/31 19:13:29;;;;;;;3.17;1.77;;;15.80;99.90;;;;;;10289911;28;20226;-86
2023/10/31 19:18:32;;;;;;;4.33;2.37;;;16.30;99.90;;;;;;10274571;28;20316;-86
2023/10/31 19:23:34;;;;;;;2.83;1.80;;;15.80;99.90;;;;;;10290814;28;20285;-86
2023/10/31 19:28:38;;;;;;;5.33;1.70;;;16.40;99.90;;;;;;10289821;28;20287;-86
2023/10/31 19:33:41;;;;;;;1.60;1.50;;;16.40;99.90;;;;;;10290154;28;20242;-86
2023/10/31 19:38:44;;;;;;;2.30;1.70;;;16.50;99.90;;;;;;10274952;28;20288;-86
2023/10/31 19:43:46;;;;;;;5.80;1.87;;;16.40;99.90;;;;;;10272731;28;20268;-86
2023/10/31 19:48:49;;;;;;;2.30;1.63;;;16.60;99.90;;;;;;10271707;28;20233;-86
2023/10/31 19:53:52;;;;;;;1.27;0.93;;;16.50;99.90;;;;;;10282259;28;20692;-86
2023/10/31 19:58:56;;;;;;;4.20;2.33;;;16.30;99.90;;;;;;10288560;28;20288;-86
2023/10/31 20:03:58;;;;;;;4.27;1.90;;;16.60;99.90;;;;;;10271696;28;20230;-86
2023/10/31 20:09:01;;;;;;;6.17;2.00;;;16.60;99.90;;;;;;10272567;28;20315;-86
2023/10/31 20:14:04;;;;;;;2.07;1.30;;;16.20;99.90;;;;;;10272519;28;20262;-86
2023/10/31 20:19:09;;;;;;;1.77;1.03;;;16.10;99.90;;;;;;10272574;28;20717;-86
2023/10/31 20:24:11;;;;;;;2.53;1.67;;;16.20;99.90;;;;;;10270593;28;20233;-85
2023/10/31 20:29:15;;;;;;;1.80;1.60;;;16.40;99.90;;;;;;10265284;28;20261;-86
2023/10/31 20:34:18;;;;;;;2.20;1.83;;;16.10;99.90;;;;;;10263772;28;20725;-85
2023/10/31 20:39:21;;;;;;;3.30;1.43;;;15.90;99.90;;;;;;10235668;28;20280;-85
2023/10/31 20:44:23;;;;;;;2.47;1.60;;;15.70;99.90;;;;;;10270472;28;20296;-86
2023/10/31 20:49:26;;;;;;;2.90;1.93;;;15.90;99.90;;;;;;10286260;28;20236;-86
2023/10/31 20:54:29;;;;;;;1.83;1.40;;;15.90;99.90;;;;;;10286520;28;20241;-86
2023/10/31 20:59:31;;;;;;;2.53;1.70;;;15.60;99.90;;;;;;10286562;28;20257;-86
2023/10/31 21:04:36;;;;;;;2.27;1.70;;;16.10;99.90;;;;;;10286316;28;20626;-86
2023/10/31 21:09:38;;;;;;;1.93;1.23;;;15.80;99.90;;;;;;10285565;28;20314;-86
2023/10/31 21:14:41;;;;;;;1.53;1.07;;;15.50;99.90;;;;;;10269253;28;20706;-86
2023/10/31 21:19:44;;;;;;;2.33;1.60;;;15.80;99.90;;;;;;10257986;28;20249;-86
2023/10/31 21:24:46;;;;;;;1.07;1.00;;;15.70;99.90;;;;;;10254544;28;20237;-85
2023/10/31 21:29:49;;;;;;;4.73;0.80;;;15.90;99.90;;;;;;10272448;28;20233;-86
2023/10/31 21:34:51;;;;;;;3.80;1.20;;;15.90;99.90;;;;;;10322544;28;20244;-86
2023/10/31 21:39:54;;;;;;;1.67;1.20;;;15.30;99.90;;;;;;10299867;28;20299;-86
2023/10/31 21:44:56;;;;;;;1.53;1.30;;;15.10;99.90;;;;;;10303465;28;20303;-86
2023/10/31 21:50:00;;;;;;;3.43;1.00;;;15.40;99.90;;;;;;10280721;28;20241;-86
2023/10/31 21:55:03;;;;;;;1.50;1.20;;;15.20;99.90;;;;;;10274095;28;20287;-86
2023/10/31 22:00:06;;;;;;;1.60;1.10;;;15.00;99.90;;;;;;10256929;28;20735;-86
2023/10/31 22:05:12;;;;;;;1.30;1.00;;;14.70;99.90;;;;;;10259864;28;20245;-86
2023/10/31 22:10:15;;;;;;;1.63;1.20;;;14.90;99.90;;;;;;10256799;28;20229;-85
2023/10/31 22:15:17;;;;;;;1.13;1.03;;;14.30;99.90;;;;;;10266309;28;20312;-86
2023/10/31 22:20:20;;;;;;;1.17;1.00;;;14.30;99.90;;;;;;10268387;28;20268;-86
2023/10/31 22:25:23;;;;;;;2.53;1.60;;;14.60;99.90;;;;;;10284136;28;20256;-86
2023/10/31 22:30:25;;;;;;;2.50;1.60;;;14.70;99.90;;;;;;10284740;28;20226;-86
2023/10/31 22:35:28;;;;;;;2.10;1.60;;;14.00;99.90;;;;;;10285462;28;20264;-86
2023/10/31 22:40:31;;;;;;;4.60;2.63;;;14.00;99.90;;;;;;10284207;28;20261;-86
2023/10/31 22:45:34;;;;;;;1.77;1.40;;;13.90;99.90;;;;;;10254412;28;20229;-87
2023/10/31 22:50:36;;;;;;;3.10;2.13;;;13.70;99.90;;;;;;10289531;28;20276;-87
2023/10/31 22:55:39;;;;;;;3.60;2.67;;;14.00;99.90;;;;;;10292078;28;20312;-86
2023/10/31 23:00:42;;;;;;;2.83;2.50;;;13.50;99.90;;;;;;10274478;28;20263;-86
2023/10/31 23:05:44;;;;;;;3.07;1.90;;;13.00;99.90;;;;;;10259223;28;20277;-86
2023/10/31 23:10:47;;;;;;;2.47;2.07;;;13.70;99.90;;;;;;10292291;28;20237;-86
2023/10/31 23:15:49;;;;;;;4.77;1.07;;;14.30;99.90;;;;;;10274692;28;20252;-86
2023/10/31 23:20:52;;;;;;;2.23;1.57;;;14.60;99.90;;;;;;10290560;28;20275;-86
2023/10/31 23:25:55;;;;;;;1.27;1.10;;;14.90;99.90;;;;;;10280114;28;20264;-86
2023/10/31 23:31:00;;;;;;;2.27;1.90;;;15.20;99.90;;;;;;10277100;28;20635;-86
2023/10/31 23:36:03;;;;;;;2.67;1.73;;;15.40;99.90;;;;;;10255092;28;20371;-86
2023/10/31 23:41:06;;;;;;;2.53;1.53;;;15.30;99.90;;;;;;10251160;28;20257;-87
2023/10/31 23:46:09;;;;;;;1.87;1.30;;;14.90;99.90;;;;;;10258949;28;20241;-88
2023/10/31 23:51:11;;;;;;;2.40;1.70;;;14.90;99.90;;;;;;10290669;28;20288;-88
2023/10/31 23:56:14;;;;;;;1.10;1.00;;;14.60;99.90;;;;;;10288733;28;20238;-88
